Time;durP1;ratioP1;P1;durP2;ratioP2;P2;SDS_P1;SDS_P2;PMS_P1;PMS_P2;Temp;Humidity;BMP_temperature;BMP_pressure;BME280_temperature;BME280_humidity;BME280_pressure;Samples;Min_cycle;Max_cycle;Signal;HPM_P1;HPM_P2
2022/09/02 00:00:51;;;;;;;1.63;1.17;;;;;;;;;;5073405;28;20542;-55
2022/09/02 00:03:19;;;;;;;1.17;1.07;;;;;;;;;;5073267;28;20522;-56
2022/09/02 00:05:47;;;;;;;2.60;1.10;;;;;;;;;;5073458;28;20442;-55
2022/09/02 00:08:16;;;;;;;2.20;1.27;;;;;;;;;;5073077;28;20541;-55
2022/09/02 00:10:44;;;;;;;1.17;1.00;;;;;;;;;;5073164;28;20443;-55
2022/09/02 00:13:13;;;;;;;1.20;1.10;;;;;;;;;;5073121;28;20887;-56
2022/09/02 00:15:41;;;;;;;1.80;1.60;;;;;;;;;;5072927;28;20486;-56
2022/09/02 00:18:12;;;;;;;1.93;1.73;;;;;;;;;;5073138;28;20550;-55
2022/09/02 00:20:41;;;;;;;1.40;1.20;;;;;;;;;;5073195;28;20809;-55
2022/09/02 00:23:08;;;;;;;1.40;1.23;;;14.50;74.70;;;;;;5073115;28;20522;-56
2022/09/02 00:25:38;;;;;;;1.47;1.37;;;14.00;83.70;;;;;;5074859;28;20534;-55
2022/09/02 00:28:06;;;;;;;1.33;1.23;;;14.00;83.20;;;;;;5076836;28;20990;-55
2022/09/02 00:30:34;;;;;;;2.90;1.20;;;14.00;83.80;;;;;;5077168;28;20501;-55
2022/09/02 00:33:02;;;;;;;2.03;1.30;;;13.90;84.20;;;;;;5077164;28;20443;-55
2022/09/02 00:35:29;;;;;;;1.70;1.37;;;13.90;84.90;;;;;;5077061;28;20582;-55
2022/09/02 00:37:57;;;;;;;1.10;0.93;;;13.90;85.20;;;;;;5076961;28;20903;-55
2022/09/02 00:40:24;;;;;;;2.50;1.43;;;13.80;85.80;;;;;;5077106;28;20542;-55
2022/09/02 00:42:53;;;;;;;1.40;1.30;;;13.80;86.20;;;;;;5076660;28;20535;-55
2022/09/02 00:45:21;;;;;;;1.90;1.50;;;13.80;86.70;;;;;;5076956;28;20471;-55
2022/09/02 00:47:50;;;;;;;2.50;1.40;;;13.70;87.00;;;;;;5076561;28;20545;-55
2022/09/02 00:50:21;;;;;;;1.30;1.20;;;13.70;87.60;;;;;;5076928;28;20847;-56
2022/09/02 00:52:52;;;;;;;1.33;1.00;;;13.70;88.20;;;;;;5076733;28;20438;-55
2022/09/02 00:55:23;;;;;;;4.33;1.27;;;13.60;88.80;;;;;;5076321;28;21069;-55
2022/09/02 00:57:55;;;;;;;3.00;1.50;;;13.60;89.10;;;;;;5076862;28;20545;-55
2022/09/02 01:00:24;;;;;;;3.03;1.33;;;13.60;89.60;;;;;;5076490;28;20423;-55
2022/09/02 01:02:55;;;;;;;2.67;1.83;;;13.60;90.00;;;;;;5076465;28;20519;-55
2022/09/02 01:05:25;;;;;;;2.07;1.30;;;13.60;90.00;;;;;;5076109;28;20435;-55
2022/09/02 01:07:54;;;;;;;1.50;1.40;;;13.60;90.20;;;;;;5098078;22;20574;-59
2022/09/02 01:10:23;;;;;;;3.83;1.30;;;13.50;90.40;;;;;;5076529;28;20439;-59
2022/09/02 01:12:57;;;;;;;3.73;1.40;;;;;;;;;;5076350;28;20526;-59
2022/09/02 01:15:25;;;;;;;1.00;0.90;;;;;;;;;;5076289;28;20470;-60
2022/09/02 01:17:52;;;;;;;1.43;1.10;;;;;;;;;;5076444;28;20553;-59
2022/09/02 01:20:21;;;;;;;1.23;1.13;;;;;;;;;;5076619;28;20446;-58
2022/09/02 01:22:50;;;;;;;2.53;1.80;;;;;;;;;;5076339;28;20546;-59
2022/09/02 01:25:19;;;;;;;1.90;1.20;;;;;;;;;;5075913;28;20439;-59
2022/09/02 01:27:47;;;;;;;1.53;1.20;;;;;;;;;;5075977;28;20552;-59
2022/09/02 01:30:16;;;;;;;2.17;1.20;;;;;;;;;;5076345;28;20543;-59
2022/09/02 01:32:44;;;;;;;2.70;1.57;;;;;;;;;;5075972;28;20542;-59
2022/09/02 01:35:11;;;;;;;3.97;1.60;;;;;;;;;;5076304;28;20562;-59
2022/09/02 01:37:39;;;;;;;1.57;1.07;;;;;;;;;;5075587;28;20503;-59
2022/09/02 01:40:09;;;;;;;3.40;1.37;;;;;;;;;;5075859;28;20534;-59
2022/09/02 01:42:37;;;;;;;1.40;1.20;;;;;;;;;;5076260;28;20537;-59
2022/09/02 01:45:04;;;;;;;3.53;1.40;;;;;;;;;;5075624;28;20906;-58
2022/09/02 01:47:32;;;;;;;2.80;1.93;;;;;;;;;;5075565;28;20557;-60
2022/09/02 01:50:00;;;;;;;2.00;1.37;;;;;;;;;;5075781;28;20470;-59
2022/09/02 01:52:28;;;;;;;1.30;1.20;;;;;;;;;;5075491;28;20533;-59
2022/09/02 01:54:56;;;;;;;2.20;1.10;;;;;;;;;;5077664;28;20544;-58
2022/09/02 01:57:25;;;;;;;1.90;1.60;;;;;;;;;;5075259;28;20951;-59
2022/09/02 01:59:52;;;;;;;1.50;1.40;;;;;;;;;;5075383;28;20917;-59
2022/09/02 02:02:20;;;;;;;8.03;1.77;;;;;;;;;;5075631;28;20508;-59
2022/09/02 02:04:48;;;;;;;7.80;1.90;;;;;;;;;;5075508;28;21042;-59
2022/09/02 02:07:16;;;;;;;1.77;1.10;;;;;;;;;;5075025;28;20558;-60
2022/09/02 02:09:43;;;;;;;1.63;1.40;;;;;;;;;;5075621;28;20874;-59
2022/09/02 02:12:11;;;;;;;2.00;1.40;;;;;;;;;;5075394;28;20807;-59
2022/09/02 02:14:40;;;;;;;1.43;1.33;;;;;;;;;;5075108;28;20955;-59
2022/09/02 02:17:07;;;;;;;3.30;1.37;;;;;;;;;;5075055;28;20474;-60
2022/09/02 02:19:35;;;;;;;1.80;1.40;;;;;;;;;;5075331;28;20461;-60
2022/09/02 02:22:02;;;;;;;1.77;1.43;;;;;;;;;;5074826;28;20535;-59
2022/09/02 02:24:30;;;;;;;1.50;1.40;;;;;;;;;;5075052;28;20530;-60
2022/09/02 02:26:57;;;;;;;2.23;1.87;;;;;;;;;;5074844;28;20563;-59
2022/09/02 02:29:25;;;;;;;2.83;1.70;;;;;;;;;;5074668;28;20807;-59
2022/09/02 02:31:54;;;;;;;2.50;1.73;;;;;;;;;;5074953;28;20970;-59
2022/09/02 02:34:21;;;;;;;5.97;2.00;;;;;;;;;;5074741;28;20461;-59
2022/09/02 02:36:48;;;;;;;2.10;1.40;;;;;;;;;;5074384;28;21065;-60
2022/09/02 02:39:16;;;;;;;11.03;1.77;;;;;;;;;;5074471;28;20586;-58
2022/09/02 02:41:45;;;;;;;1.70;1.47;;;;;;;;;;5074773;28;20876;-60
2022/09/02 02:44:13;;;;;;;2.00;1.37;;;;;;;;;;5074828;28;20930;-60
2022/09/02 02:46:40;;;;;;;1.57;1.47;;;;;;;;;;5074587;28;20549;-59
2022/09/02 02:49:09;;;;;;;2.10;1.80;;;;;;;;;;5073418;28;20439;-60
2022/09/02 02:51:37;;;;;;;2.00;1.60;;;;;;;;;;5074204;28;20497;-60
2022/09/02 02:54:05;;;;;;;2.47;2.10;;;;;;;;;;5074512;28;20451;-60
2022/09/02 02:56:32;;;;;;;2.30;1.60;;;;;;;;;;5074369;28;20594;-61
2022/09/02 02:59:02;;;;;;;1.60;1.50;;;;;;;;;;5074572;28;20450;-60
2022/09/02 03:01:30;;;;;;;3.00;1.47;;;;;;;;;;5078885;28;20452;-60
2022/09/02 03:03:57;;;;;;;1.70;1.50;;;;;;;;;;5074105;28;20469;-60
2022/09/02 03:06:26;;;;;;;1.50;1.33;;;;;;;;;;5073678;28;20522;-60
2022/09/02 03:08:55;;;;;;;2.77;2.10;;;;;;;;;;5074217;28;20426;-60
2022/09/02 03:11:24;;;;;;;2.63;1.43;;;;;;;;;;5073624;28;20443;-60
2022/09/02 03:13:51;;;;;;;2.13;1.53;;;;;;;;;;5073980;28;20850;-59
2022/09/02 03:16:19;;;;;;;1.57;1.47;;;;;;;;;;5073681;28;20565;-59
2022/09/02 03:18:46;;;;;;;1.80;1.60;;;;;;;;;;5073656;28;20935;-60
2022/09/02 03:21:14;;;;;;;2.23;1.70;;;;;;;;;;5073595;28;20449;-60
2022/09/02 03:23:44;;;;;;;1.93;1.43;;;;;;;;;;5073328;28;20919;-60
2022/09/02 03:26:12;;;;;;;2.00;1.80;;;;;;;;;;5073463;28;20945;-59
2022/09/02 03:28:40;;;;;;;2.37;1.83;;;;;;;;;;5074340;28;20477;-60
2022/09/02 03:31:08;;;;;;;2.37;1.80;;;;;;;;;;5074108;28;20542;-59
2022/09/02 03:33:35;;;;;;;4.40;1.87;;;;;;;;;;5073774;28;20906;-60
2022/09/02 03:36:02;;;;;;;1.87;1.77;;;;;;;;;;5073344;28;20577;-60
2022/09/02 03:38:30;;;;;;;3.43;1.80;;;;;;;;;;5073222;28;20477;-60
2022/09/02 03:40:59;;;;;;;6.00;1.30;;;;;;;;;;5080752;28;20530;-59
2022/09/02 03:43:26;;;;;;;2.10;1.90;;;;;;;;;;5081873;28;20811;-59
2022/09/02 03:45:53;;;;;;;2.03;1.60;;;;;;;;;;5073641;28;20447;-60
2022/09/02 03:48:22;;;;;;;3.37;1.60;;;;;;;;;;5073755;28;20550;-59
2022/09/02 03:50:49;;;;;;;2.47;1.93;;;;;;;;;;5074934;28;20454;-60
2022/09/02 03:53:17;;;;;;;2.57;2.07;;;;;;;;;;5074808;28;20449;-60
2022/09/02 03:55:44;;;;;;;2.23;1.60;;;;;;;;;;5074044;28;20507;-59
2022/09/02 03:58:13;;;;;;;2.50;1.80;;;;;;;;;;5074013;28;20558;-59
2022/09/02 04:00:41;;;;;;;2.10;1.80;;;;;;;;;;5074401;28;20451;-59
2022/09/02 04:03:08;;;;;;;2.13;1.93;;;;;;;;;;5075231;28;20526;-59
2022/09/02 04:05:36;;;;;;;2.10;1.70;;;;;;;;;;5074903;28;20538;-60
2022/09/02 04:10:11;;;;;;;2.57;2.00;;;;;;;;;;5101884;27;20610;-60
2022/09/02 04:12:39;;;;;;;3.40;2.20;;;;;;;;;;5110848;28;20573;-59
2022/09/02 04:15:09;;;;;;;4.40;1.90;;;;;;;;;;5111779;28;20449;-59
2022/09/02 04:17:37;;;;;;;4.47;2.17;;;;;;;;;;5098562;28;20498;-58
2022/09/02 04:20:05;;;;;;;3.93;2.13;;;;;;;;;;5089291;28;20446;-59
2022/09/02 04:22:33;;;;;;;4.53;1.90;;;;;;;;;;5082813;28;20788;-60
2022/09/02 04:25:01;;;;;;;2.13;2.03;;;;;;;;;;5070375;28;20459;-60
2022/09/02 04:27:30;;;;;;;3.57;2.07;;;;;;;;;;5081496;28;20470;-61
2022/09/02 04:29:58;;;;;;;2.20;2.00;;;;;;;;;;5089912;28;20471;-61
2022/09/02 04:32:25;;;;;;;3.40;2.07;;;;;;;;;;5071068;28;20458;-61
2022/09/02 04:34:53;;;;;;;2.40;2.20;;;;;;;;;;5070950;28;20448;-61
2022/09/02 04:37:21;;;;;;;2.73;2.23;;;;;;;;;;5069970;28;20466;-60
2022/09/02 04:39:49;;;;;;;3.10;1.90;;;;;;;;;;5089421;28;20445;-60
2022/09/02 04:42:16;;;;;;;3.73;2.13;;;;;;;;;;5090090;28;20449;-60
2022/09/02 04:44:46;;;;;;;4.23;2.10;;;;;;;;;;5089768;28;20452;-60
2022/09/02 04:47:13;;;;;;;2.60;2.00;;;;;;;;;;5089221;28;20557;-60
2022/09/02 04:49:41;;;;;;;2.50;2.13;;;;;;;;;;5053881;28;20471;-59
2022/09/02 04:52:10;;;;;;;3.83;2.20;;;;;;;;;;5069844;28;20448;-60
2022/09/02 04:54:38;;;;;;;3.20;2.00;;;;;;;;;;5086026;28;20472;-60
2022/09/02 04:57:05;;;;;;;2.23;2.00;;;;;;;;;;5078178;28;20471;-60
2022/09/02 04:59:35;;;;;;;3.87;2.47;;;;;;;;;;5083145;28;20944;-59
2022/09/02 05:02:04;;;;;;;2.03;1.90;;;;;;;;;;5079616;28;20867;-60
2022/09/02 05:04:32;;;;;;;2.43;1.93;;;;;;;;;;5070124;28;20977;-61
2022/09/02 05:07:00;;;;;;;2.37;2.07;;;;;;;;;;5078501;28;20471;-59
2022/09/02 05:09:28;;;;;;;4.67;2.67;;;;;;;;;;5077083;28;20478;-59
2022/09/02 05:11:57;;;;;;;2.90;2.00;;;;;;;;;;5083882;28;20440;-61
2022/09/02 05:14:25;;;;;;;4.43;2.10;;;;;;;;;;5076270;28;20463;-61
2022/09/02 05:16:53;;;;;;;2.60;2.40;;;;;;;;;;5079060;28;20467;-60
2022/09/02 05:19:23;;;;;;;4.97;2.93;;;12.00;98.90;;;;;;5068407;28;20756;-59
2022/09/02 05:21:54;;;;;;;4.53;2.33;;;12.70;99.50;;;;;;5059179;28;20436;-61
2022/09/02 05:24:22;;;;;;;2.60;2.10;;;12.70;99.40;;;;;;5062901;28;20493;-60
2022/09/02 05:26:49;;;;;;;2.30;2.10;;;12.60;99.20;;;;;;5055538;28;20464;-59
2022/09/02 05:29:19;;;;;;;3.40;2.07;;;12.60;99.10;;;;;;5073341;28;20524;-59
2022/09/02 05:31:47;;;;;;;2.10;1.93;;;12.50;99.10;;;;;;5070691;28;20444;-59
2022/09/02 05:34:16;;;;;;;5.73;2.23;;;12.50;99.20;;;;;;5055672;28;20447;-59
2022/09/02 05:36:45;;;;;;;4.30;2.30;;;12.50;99.20;;;;;;5055687;28;20460;-59
2022/09/02 05:39:13;;;;;;;4.67;2.77;;;12.50;99.20;;;;;;5055628;28;20475;-59
2022/09/02 05:41:41;;;;;;;3.40;2.13;;;12.60;99.00;;;;;;5055911;28;20452;-59
2022/09/02 05:44:08;;;;;;;5.83;2.53;;;12.60;98.90;;;;;;5062084;28;20443;-58
2022/09/02 05:46:36;;;;;;;4.57;3.07;;;12.60;99.10;;;;;;5076035;28;20467;-59
2022/09/02 05:49:08;;;;;;;2.60;2.20;;;12.60;98.80;;;;;;5075424;28;20479;-58
2022/09/02 05:51:41;;;;;;;4.47;2.60;;;12.70;98.80;;;;;;5075914;28;20427;-59
2022/09/02 05:54:12;;;;;;;3.27;2.00;;;12.70;98.60;;;;;;5076944;28;20882;-59
2022/09/02 05:56:40;;;;;;;2.63;2.43;;;12.80;98.50;;;;;;5075814;28;20536;-59
2022/09/02 05:59:09;;;;;;;8.20;2.80;;;12.80;98.40;;;;;;5075715;28;20950;-59
2022/09/02 06:01:37;;;;;;;3.40;2.37;;;12.80;98.30;;;;;;5072429;28;20952;-59
2022/09/02 06:04:05;;;;;;;3.07;2.37;;;12.90;98.20;;;;;;5067861;28;20451;-60
2022/09/02 06:06:33;;;;;;;3.37;2.20;;;13.00;98.00;;;;;;5064196;28;20466;-60
2022/09/02 06:09:03;;;;;;;1.80;1.70;;;13.10;97.90;;;;;;5066009;28;20485;-60
2022/09/02 06:11:31;;;;;;;3.67;2.10;;;13.10;97.60;;;;;;5055637;28;20448;-60
2022/09/02 06:13:59;;;;;;;3.20;2.33;;;13.20;97.50;;;;;;5054810;28;20452;-60
2022/09/02 06:16:26;;;;;;;3.23;2.30;;;13.30;97.30;;;;;;5055347;28;20451;-60
2022/09/02 06:18:53;;;;;;;2.70;2.50;;;13.30;97.10;;;;;;5056381;28;20455;-60
2022/09/02 06:21:20;;;;;;;4.40;2.37;;;13.40;96.90;;;;;;5055593;28;20505;-59
2022/09/02 06:23:48;;;;;;;2.90;2.60;;;13.50;96.80;;;;;;5072302;28;20934;-60
2022/09/02 06:26:17;;;;;;;2.70;2.43;;;13.60;96.60;;;;;;5075378;28;20442;-60
2022/09/02 06:28:46;;;;;;;3.10;2.17;;;13.70;96.40;;;;;;5074652;28;20489;-61
2022/09/02 06:31:16;;;;;;;4.73;2.57;;;13.80;96.10;;;;;;5070008;28;20539;-61
2022/09/02 06:33:45;;;;;;;3.63;3.17;;;13.90;95.90;;;;;;5069569;28;20479;-62
2022/09/02 06:36:15;;;;;;;3.30;3.00;;;14.00;95.60;;;;;;5075969;28;20538;-59
2022/09/02 06:38:44;;;;;;;4.03;2.93;;;14.10;95.30;;;;;;5075302;28;20953;-59
2022/09/02 06:41:12;;;;;;;2.87;2.63;;;14.20;95.00;;;;;;5075508;28;20455;-60
2022/09/02 06:43:40;;;;;;;2.50;2.30;;;14.40;94.70;;;;;;5074896;28;20439;-61
2022/09/02 06:46:14;;;;;;;3.80;2.20;;;14.50;94.40;;;;;;5074801;28;20444;-61
2022/09/02 06:48:41;;;;;;;4.30;3.00;;;14.50;94.10;;;;;;5075192;28;20534;-61
2022/09/02 06:51:09;;;;;;;4.87;2.50;;;14.60;93.80;;;;;;5077352;28;20482;-61
2022/09/02 06:53:36;;;;;;;3.40;2.60;;;14.80;93.50;;;;;;5090121;28;20443;-60
2022/09/02 06:56:09;;;;;;;4.60;2.13;;;14.80;93.20;;;;;;5085147;28;20939;-61
2022/09/02 06:58:37;;;;;;;3.80;2.40;;;14.90;92.90;;;;;;5075290;28;20937;-60
2022/09/02 07:01:04;;;;;;;3.00;2.27;;;15.00;92.60;;;;;;5076148;28;20526;-60
2022/09/02 07:06:17;;;;;;;3.50;2.17;;;15.30;91.90;;;;;;5074396;28;20422;-63
2022/09/02 07:08:45;;;;;;;2.80;2.47;;;15.50;91.40;;;;;;5076758;22;20948;-54
2022/09/02 07:11:17;;;;;;;3.30;2.60;;;15.60;91.10;;;;;;5034883;28;20445;-55
2022/09/02 07:13:44;;;;;;;5.03;2.13;;;15.70;90.70;;;;;;5034644;28;20552;-55
2022/09/02 07:16:12;;;;;;;3.67;2.50;;;15.80;90.20;;;;;;5034949;28;20541;-55
2022/09/02 07:18:42;;;;;;;3.37;2.63;;;15.90;89.90;;;;;;5050564;28;20546;-54
2022/09/02 07:21:11;;;;;;;2.90;2.60;;;16.00;89.30;;;;;;5054661;28;20452;-54
2022/09/02 07:23:39;;;;;;;3.93;2.60;;;16.20;88.70;;;;;;5054448;28;20452;-55
2022/09/02 07:26:12;;;;;;;5.53;2.93;;;16.30;88.60;;;;;;5053995;28;20544;-55
2022/09/02 07:28:41;;;;;;;2.80;1.83;;;16.50;87.20;;;;;;5053963;28;20468;-55
2022/09/02 07:31:09;;;;;;;3.77;2.50;;;16.60;86.10;;;;;;5053423;28;20472;-54
2022/09/02 07:33:36;;;;;;;3.50;2.10;;;16.60;85.30;;;;;;5054393;28;20886;-52
2022/09/02 07:36:06;;;;;;;3.70;2.30;;;16.70;84.70;;;;;;5054444;28;20497;-53
2022/09/02 07:38:34;;;;;;;3.10;2.10;;;16.70;84.10;;;;;;5053598;28;20979;-55
2022/09/02 07:41:01;;;;;;;2.30;2.00;;;16.70;83.70;;;;;;5054237;28;20483;-54
2022/09/02 07:43:30;;;;;;;4.37;2.20;;;16.80;83.30;;;;;;5053573;28;20448;-52
2022/09/02 07:45:59;;;;;;;3.93;2.33;;;16.80;82.80;;;;;;5053928;28;20451;-56
2022/09/02 07:48:28;;;;;;;2.30;2.10;;;16.90;82.40;;;;;;5053245;28;20550;-54
2022/09/02 07:50:56;;;;;;;2.30;2.00;;;17.10;81.80;;;;;;5052722;28;20483;-56
2022/09/02 07:53:25;;;;;;;8.30;2.30;;;17.10;80.90;;;;;;5053138;28;20523;-53
2022/09/02 07:55:52;;;;;;;2.30;2.00;;;17.20;80.30;;;;;;5053184;28;20460;-55
2022/09/02 07:58:21;;;;;;;3.67;2.10;;;17.20;79.70;;;;;;5053104;28;20556;-57
2022/09/02 08:00:48;;;;;;;3.30;2.17;;;17.30;79.10;;;;;;5053515;28;20446;-55
2022/09/02 08:03:16;;;;;;;5.50;2.37;;;17.40;78.70;;;;;;5054629;28;20531;-55
2022/09/02 08:05:45;;;;;;;3.60;2.20;;;17.50;78.10;;;;;;5054114;28;20503;-55
2022/09/02 08:08:13;;;;;;;2.70;1.83;;;17.60;77.20;;;;;;5052724;28;20484;-55
2022/09/02 08:10:42;;;;;;;2.90;2.30;;;17.60;76.50;;;;;;5053898;28;20507;-57
2022/09/02 08:13:10;;;;;;;3.67;2.37;;;17.70;75.90;;;;;;5053399;28;20501;-58
2022/09/02 08:15:38;;;;;;;3.17;2.10;;;17.80;75.20;;;;;;5052994;28;20937;-57
2022/09/02 08:18:06;;;;;;;3.83;1.90;;;17.90;74.60;;;;;;5053143;28;20474;-58
2022/09/02 08:20:33;;;;;;;3.37;1.90;;;18.10;74.10;;;;;;5052984;28;20444;-57
2022/09/02 08:23:01;;;;;;;2.50;1.93;;;18.20;73.40;;;;;;5052883;28;20456;-57
2022/09/02 08:25:29;;;;;;;4.03;2.30;;;18.40;72.60;;;;;;5053369;28;20524;-57
2022/09/02 08:27:57;;;;;;;3.70;1.97;;;18.50;71.60;;;;;;5053121;28;20472;-57
2022/09/02 08:30:25;;;;;;;5.57;2.63;;;18.60;70.50;;;;;;5053310;28;20566;-57
2022/09/02 08:32:52;;;;;;;2.60;1.93;;;18.70;69.60;;;;;;5054078;28;20432;-58
2022/09/02 08:35:20;;;;;;;3.20;2.10;;;18.70;69.10;;;;;;5054964;28;20472;-58
2022/09/02 08:37:47;;;;;;;3.57;2.23;;;18.80;68.60;;;;;;5054210;28;20525;-57
2022/09/02 08:40:19;;;;;;;6.77;1.97;;;18.90;67.80;;;;;;5074067;28;20450;-57
2022/09/02 08:42:48;;;;;;;2.37;1.63;;;19.00;67.00;;;;;;5074327;28;20428;-58
2022/09/02 08:45:24;;;;;;;2.40;2.10;;;19.20;66.70;;;;;;5074019;28;20455;-57
2022/09/02 08:48:03;;;;;;;2.67;2.00;;;19.30;65.30;;;;;;5072785;28;20543;-58
2022/09/02 08:50:32;;;;;;;3.87;2.33;;;19.30;64.20;;;;;;5073536;28;20474;-57
2022/09/02 08:53:05;;;;;;;3.30;2.33;;;19.40;63.50;;;;;;5073845;28;20443;-57
2022/09/02 08:55:38;;;;;;;3.83;1.73;;;19.40;62.90;;;;;;5071224;28;20982;-57
2022/09/02 08:58:05;;;;;;;5.23;2.37;;;19.50;62.40;;;;;;5037669;28;20876;-56
2022/09/02 09:00:41;;;;;;;2.67;1.90;;;19.60;62.00;;;;;;5036787;28;21044;-56
2022/09/02 09:03:19;;;;;;;2.60;1.87;;;19.70;61.40;;;;;;5036808;28;20436;-56
2022/09/02 09:05:57;;;;;;;4.10;2.30;;;19.90;60.80;;;;;;5037605;28;20425;-57
2022/09/02 09:08:37;;;;;;;2.10;1.83;;;20.00;60.10;;;;;;5036750;28;20476;-58
2022/09/02 09:11:13;;;;;;;4.20;2.40;;;20.10;59.60;;;;;;5037170;28;20465;-58
2022/09/02 09:14:01;;;;;;;5.57;2.17;;;20.30;59.20;;;;;;5037104;28;20425;-57
2022/09/02 09:16:40;;;;;;;1.60;1.50;;;20.40;58.30;;;;;;5037393;28;20429;-57
2022/09/02 09:19:12;;;;;;;2.77;1.63;;;20.50;57.80;;;;;;5036756;28;21002;-59
2022/09/02 09:21:40;;;;;;;2.53;1.63;;;20.60;57.60;;;;;;5036795;28;20426;-57
2022/09/02 09:24:17;;;;;;;2.53;2.00;;;20.70;57.20;;;;;;5036554;28;20445;-57
2022/09/02 09:26:46;;;;;;;4.83;1.80;;;20.90;56.20;;;;;;5036812;28;20427;-56
2022/09/02 09:29:14;;;;;;;3.10;1.77;;;20.90;55.40;;;;;;5036536;28;20485;-57
2022/09/02 09:31:46;;;;;;;3.73;2.70;;;20.90;55.00;;;;;;5037884;28;20891;-56
2022/09/02 09:34:14;;;;;;;2.53;2.00;;;21.00;54.60;;;;;;5037750;28;20418;-56
2022/09/02 09:36:48;;;;;;;6.00;2.07;;;21.10;53.80;;;;;;5037169;28;20446;-56
2022/09/02 09:39:21;;;;;;;3.60;1.50;;;21.20;53.20;;;;;;5036646;28;20465;-55
2022/09/02 09:41:50;;;;;;;9.93;1.63;;;21.30;52.80;;;;;;5036076;28;20500;-56
2022/09/02 09:44:43;;;;;;;2.93;1.50;;;21.40;52.20;;;;;;5036439;28;20486;-55
2022/09/02 09:47:18;;;;;;;2.00;1.70;;;21.60;51.60;;;;;;5036330;28;20461;-55
2022/09/02 09:49:47;;;;;;;3.43;2.17;;;21.70;50.90;;;;;;5036879;28;20440;-55
2022/09/02 09:52:23;;;;;;;1.60;1.37;;;21.70;50.20;;;;;;5036858;28;20806;-55
2022/09/02 09:55:13;;;;;;;2.30;1.30;;;21.80;49.90;;;;;;5036846;28;20434;-55
2022/09/02 09:57:42;;;;;;;1.73;1.60;;;22.00;49.30;;;;;;5037034;28;20857;-55
2022/09/02 10:00:21;;;;;;;2.97;2.03;;;22.00;48.90;;;;;;5038591;28;20490;-56
2022/09/02 10:02:52;;;;;;;3.30;1.60;;;22.10;48.60;;;;;;5037002;28;20501;-55
2022/09/02 10:05:31;;;;;;;3.00;1.87;;;22.20;48.00;;;;;;5036917;28;20817;-56
2022/09/02 10:08:00;;;;;;;1.40;1.20;;;22.20;47.40;;;;;;5037307;28;20487;-55
2022/09/02 10:10:29;;;;;;;4.20;1.93;;;22.20;47.10;;;;;;5036147;28;20482;-55
2022/09/02 10:13:00;;;;;;;1.63;1.40;;;22.30;47.10;;;;;;5035613;28;20443;-55
2022/09/02 10:15:40;;;;;;;1.40;1.20;;;22.30;46.80;;;;;;5035805;28;20462;-55
2022/09/02 10:18:22;;;;;;;4.43;1.20;;;22.40;46.20;;;;;;5035443;28;20476;-53
2022/09/02 10:20:56;;;;;;;2.03;1.40;;;22.50;45.90;;;;;;5035173;28;20625;-54
2022/09/02 10:23:42;;;;;;;2.40;1.50;;;22.60;45.50;;;;;;5035821;28;20776;-54
2022/09/02 10:26:20;;;;;;;1.40;1.30;;;22.60;45.30;;;;;;5035426;28;20523;-54
2022/09/02 10:29:17;;;;;;;2.60;1.27;;;22.60;44.90;;;;;;5035234;28;20478;-56
2022/09/02 10:31:54;;;;;;;2.53;1.27;;;22.70;44.90;;;;;;5035166;28;20472;-56
2022/09/02 10:34:33;;;;;;;2.03;1.77;;;22.90;44.70;;;;;;5035564;28;20846;-54
2022/09/02 10:37:14;;;;;;;1.73;1.10;;;23.00;44.10;;;;;;5034323;28;20527;-55
2022/09/02 10:40:03;;;;;;;1.90;1.23;;;23.20;43.70;;;;;;5034352;28;20442;-54
2022/09/02 10:42:39;;;;;;;3.07;1.80;;;23.30;43.00;;;;;;5034252;28;20490;-54
2022/09/02 10:45:16;;;;;;;2.10;1.30;;;23.30;42.40;;;;;;5034199;28;20432;-54
2022/09/02 10:47:50;;;;;;;1.57;1.27;;;23.30;42.10;;;;;;5036132;28;21083;-54
2022/09/02 10:50:22;;;;;;;2.33;1.30;;;23.30;42.00;;;;;;5036536;28;20555;-54
2022/09/02 10:53:10;;;;;;;5.57;1.63;;;23.40;41.70;;;;;;5036801;28;20824;-54
2022/09/02 10:55:45;;;;;;;2.60;1.67;;;23.40;41.60;;;;;;5035099;28;20491;-55
2022/09/02 10:58:20;;;;;;;1.60;1.50;;;23.40;41.60;;;;;;5034597;28;20472;-55
2022/09/02 11:00:50;;;;;;;3.47;1.37;;;23.60;41.70;;;;;;5034608;28;20452;-55
2022/09/02 11:03:24;;;;;;;2.13;1.30;;;23.70;41.50;;;;;;5034912;28;20471;-56
2022/09/02 11:05:55;;;;;;;5.13;1.30;;;23.80;41.00;;;;;;5034843;28;20433;-55
2022/09/02 11:08:29;;;;;;;1.73;1.03;;;23.80;40.80;;;;;;5033676;28;20563;-56
2022/09/02 11:11:03;;;;;;;1.83;1.70;;;23.80;40.80;;;;;;5033850;28;20504;-55
2022/09/02 11:13:40;;;;;;;1.83;1.23;;;23.80;40.50;;;;;;5034072;28;20524;-56
2022/09/02 11:16:13;;;;;;;1.90;1.23;;;23.80;40.40;;;;;;5033527;28;20810;-56
2022/09/02 11:18:46;;;;;;;2.87;1.37;;;23.90;40.20;;;;;;5033258;28;20465;-55
2022/09/02 11:21:29;;;;;;;5.10;1.40;;;23.90;39.80;;;;;;5033698;28;20464;-57
2022/09/02 11:24:02;;;;;;;2.37;1.47;;;24.00;40.00;;;;;;5034284;28;20527;-55
2022/09/02 11:26:37;;;;;;;1.40;1.10;;;24.10;39.90;;;;;;5034019;28;20477;-56
2022/09/02 11:29:11;;;;;;;2.53;1.63;;;24.10;39.70;;;;;;5034883;28;20481;-58
2022/09/02 11:31:43;;;;;;;3.03;1.90;;;24.20;39.80;;;;;;5034252;28;20838;-57
2022/09/02 11:34:20;;;;;;;5.73;1.40;;;24.20;39.60;;;;;;5053860;28;20527;-58
2022/09/02 11:36:50;;;;;;;7.53;1.10;;;24.40;39.40;;;;;;5055563;28;20438;-57
2022/09/02 11:39:26;;;;;;;4.00;1.50;;;24.50;39.10;;;;;;5065401;28;20863;-58
2022/09/02 11:42:08;;;;;;;2.10;1.60;;;24.50;38.60;;;;;;5063127;28;20442;-59
2022/09/02 11:45:11;;;;;;;2.50;1.40;;;24.50;38.50;;;;;;5038864;28;20521;-58
2022/09/02 11:48:22;;;;;;;4.17;1.67;;;24.40;38.30;;;;;;5018991;28;20476;-57
2022/09/02 11:51:15;;;;;;;2.00;1.30;;;24.50;39.10;;;;;;5054843;28;20474;-60
2022/09/02 11:53:46;;;;;;;4.20;1.93;;;24.60;38.40;;;;;;5054126;28;20441;-59
2022/09/02 11:56:18;;;;;;;4.57;1.43;;;24.70;38.20;;;;;;5053669;28;20952;-58
2022/09/02 11:58:47;;;;;;;2.67;1.10;;;24.70;38.00;;;;;;5053122;28;20501;-58
2022/09/02 12:01:28;;;;;;;2.30;1.43;;;24.70;37.70;;;;;;5053299;28;20528;-58
2022/09/02 12:04:00;;;;;;;3.27;1.70;;;24.60;37.40;;;;;;5054061;28;20476;-58
2022/09/02 12:06:28;;;;;;;2.40;1.33;;;24.50;37.40;;;;;;5052913;28;20431;-58
2022/09/02 12:09:03;;;;;;;1.70;1.20;;;24.60;37.30;;;;;;5052835;28;20486;-58
2022/09/02 12:12:00;;;;;;;2.07;1.37;;;24.70;37.20;;;;;;5052886;28;20996;-57
2022/09/02 12:15:10;;;;;;;2.60;2.17;;;24.80;37.00;;;;;;5053960;28;20433;-58
2022/09/02 12:18:13;;;;;;;1.63;1.53;;;24.90;36.80;;;;;;5053024;28;20470;-58
2022/09/02 12:21:10;;;;;;;4.03;1.10;;;25.00;36.70;;;;;;5053078;28;20515;-58
2022/09/02 12:24:07;;;;;;;2.17;1.10;;;25.00;36.70;;;;;;5053441;28;20468;-59
2022/09/02 12:27:06;;;;;;;4.80;1.50;;;25.00;36.50;;;;;;5054134;28;20433;-58
2022/09/02 12:29:36;;;;;;;2.40;1.60;;;25.00;36.60;;;;;;5027558;28;20453;-58
2022/09/02 12:32:04;;;;;;;2.70;1.30;;;25.00;36.50;;;;;;5057648;28;20990;-57
2022/09/02 12:34:56;;;;;;;4.03;1.40;;;25.00;36.50;;;;;;5056909;28;20451;-57
2022/09/02 12:37:52;;;;;;;3.00;1.53;;;25.00;36.30;;;;;;5057021;28;20471;-57
2022/09/02 12:40:37;;;;;;;2.43;1.60;;;25.00;36.60;;;;;;5056194;28;20454;-59
2022/09/02 12:43:17;;;;;;;3.93;1.30;;;25.10;36.60;;;;;;5057051;28;20518;-57
2022/09/02 12:45:45;;;;;;;2.40;1.83;;;25.20;36.60;;;;;;5057274;28;20426;-58
2022/09/02 12:48:17;;;;;;;3.33;2.00;;;25.30;36.70;;;;;;5061230;28;20932;-57
2022/09/02 12:50:56;;;;;;;2.20;1.40;;;25.20;36.40;;;;;;5059158;28;20992;-57
2022/09/02 12:53:40;;;;;;;7.43;2.20;;;25.10;36.50;;;;;;5056427;28;20497;-56
2022/09/02 12:56:23;;;;;;;2.20;1.43;;;24.90;36.70;;;;;;5057010;28;20933;-59
2022/09/02 12:58:53;;;;;;;2.13;1.40;;;24.60;37.00;;;;;;5036523;28;20471;-57
2022/09/02 13:01:28;;;;;;;3.53;1.70;;;24.50;37.10;;;;;;5036412;28;20519;-58
2022/09/02 13:04:22;;;;;;;2.60;1.60;;;24.40;37.30;;;;;;5036283;28;20495;-58
2022/09/02 13:07:15;;;;;;;3.30;1.73;;;24.30;37.40;;;;;;5035691;28;20453;-58
2022/09/02 13:10:15;;;;;;;3.53;1.60;;;24.30;37.70;;;;;;5050806;22;20499;-62
2022/09/02 13:13:03;;;;;;;2.70;1.80;;;24.40;37.70;;;;;;5037726;28;20492;-60
2022/09/02 13:15:42;;;;;;;4.43;1.83;;;24.60;37.40;;;;;;5040895;28;20481;-59
2022/09/02 13:18:43;;;;;;;3.43;2.40;;;24.70;37.00;;;;;;5036856;28;20563;-61
2022/09/02 13:21:47;;;;;;;2.67;1.60;;;24.70;37.10;;;;;;5036764;28;20431;-61
2022/09/02 13:24:47;;;;;;;4.30;1.60;;;24.70;37.20;;;;;;5015962;28;20477;-60
2022/09/02 13:27:38;;;;;;;6.17;1.80;;;24.60;37.20;;;;;;4982264;28;20537;-60
2022/09/02 13:30:13;;;;;;;2.30;1.30;;;24.50;37.20;;;;;;5017620;28;20452;-61
2022/09/02 13:32:40;;;;;;;2.43;1.30;;;24.40;37.30;;;;;;5031838;28;20542;-61
2022/09/02 13:35:16;;;;;;;2.33;1.30;;;24.40;37.40;;;;;;5034335;28;20449;-61
2022/09/02 13:37:44;;;;;;;2.33;1.50;;;24.40;37.30;;;;;;5035739;28;20525;-61
2022/09/02 13:40:18;;;;;;;4.03;1.13;;;24.40;37.30;;;;;;5035804;28;20541;-60
2022/09/02 13:42:49;;;;;;;2.60;1.50;;;24.60;37.20;;;;;;5035263;28;20510;-60
2022/09/02 13:45:19;;;;;;;3.27;1.47;;;24.70;36.90;;;;;;5035886;28;20436;-61
2022/09/02 13:47:49;;;;;;;2.27;1.60;;;24.90;36.50;;;;;;5037399;28;20435;-60
2022/09/02 13:50:19;;;;;;;2.97;1.47;;;24.90;36.30;;;;;;5035958;28;20879;-60
2022/09/02 13:52:49;;;;;;;3.60;1.43;;;24.80;36.40;;;;;;5035865;28;20549;-59